createdAt,value
2019-01-25T00:01:19.464Z,21.10
2019-01-25T00:03:22.985Z,24.20
2019-01-25T00:05:26.630Z,23.70
2019-01-25T00:07:29.849Z,24.75
2019-01-25T00:09:32.738Z,21.37
2019-01-25T00:11:36.445Z,25.25
2019-01-25T00:13:40.129Z,21.70
2019-01-25T00:15:43.794Z,23.70
2019-01-25T00:17:46.707Z,21.62
2019-01-25T00:19:50.408Z,21.87
2019-01-25T00:21:54.074Z,19.90
2019-01-25T00:23:57.821Z,22.65
2019-01-25T00:26:00.660Z,23.77
2019-01-25T00:28:04.288Z,22.05
2019-01-25T00:30:10.672Z,22.27
2019-01-25T00:32:14.337Z,21.02
2019-01-25T00:34:17.799Z,22.48
2019-01-25T00:36:20.750Z,22.13
2019-01-25T00:38:24.093Z,22.20
2019-01-25T00:40:27.106Z,22.52
2019-01-25T00:42:31.615Z,19.98
2019-01-25T00:44:35.314Z,21.23
2019-01-25T00:46:39.706Z,19.30
2019-01-25T00:48:42.741Z,21.27
2019-01-25T00:50:46.374Z,22.13
2019-01-25T00:52:49.294Z,23.30
2019-01-25T00:54:53.312Z,22.65
2019-01-25T00:56:57.655Z,20.02
2019-01-25T00:59:00.594Z,20.17
2019-01-25T01:01:05.014Z,20.93
2019-01-25T01:03:08.131Z,22.13
2019-01-25T01:05:11.831Z,19.83
2019-01-25T01:07:16.166Z,22.13
2019-01-25T01:09:19.082Z,20.75
2019-01-25T01:11:21.963Z,22.40
2019-01-25T01:13:24.970Z,22.05
2019-01-25T01:15:28.619Z,21.87
2019-01-25T01:17:32.573Z,21.92
2019-01-25T01:19:36.279Z,20.30
2019-01-25T01:21:39.162Z,20.40
2019-01-25T01:23:42.847Z,22.20
2019-01-25T01:25:45.835Z,22.40
2019-01-25T01:27:49.304Z,21.10
2019-01-25T01:29:52.311Z,21.00
2019-01-25T01:31:55.204Z,21.02
2019-01-25T01:33:58.862Z,21.08
2019-01-25T01:36:02.416Z,21.50
2019-01-25T01:38:06.042Z,21.37
2019-01-25T01:40:12.332Z,19.77
2019-01-25T01:42:15.214Z,21.37
2019-01-25T01:44:18.116Z,22.17
2019-01-25T01:46:21.770Z,21.35
2019-01-25T01:48:25.098Z,21.65
2019-01-25T01:50:29.103Z,20.65
2019-01-25T01:52:33.433Z,21.45
2019-01-25T01:54:37.105Z,20.98
2019-01-25T01:56:39.986Z,22.00
2019-01-25T01:58:42.884Z,18.80
2019-01-25T02:00:45.839Z,22.15
2019-01-25T02:02:48.739Z,20.12
2019-01-25T02:04:53.186Z,19.90
2019-01-25T02:06:56.304Z,22.17
2019-01-25T02:08:59.810Z,20.37
2019-01-25T02:11:02.699Z,20.35
2019-01-25T02:13:06.406Z,20.35
2019-01-25T02:15:09.291Z,19.40
2019-01-25T02:17:12.183Z,22.95
2019-01-25T02:19:15.091Z,22.10
2019-01-25T02:21:18.931Z,19.75
2019-01-25T02:23:21.816Z,21.70
2019-01-25T02:25:25.442Z,19.95
2019-01-25T02:27:28.419Z,20.70
2019-01-25T02:29:31.339Z,18.50
2019-01-25T02:31:35.004Z,20.35
2019-01-25T02:33:40.111Z,20.95
2019-01-25T02:35:43.010Z,20.27
2019-01-25T02:37:45.900Z,19.80
2019-01-25T02:39:49.600Z,20.85
2019-01-25T02:41:53.421Z,22.67
2019-01-25T02:43:57.078Z,20.27
2019-01-25T02:46:00.193Z,19.65
2019-01-25T02:48:03.258Z,19.77
2019-01-25T02:50:15.697Z,18.87
2019-01-25T02:52:19.356Z,20.47
2019-01-25T02:54:22.458Z,22.40
2019-01-25T02:56:25.442Z,19.67
2019-01-25T02:58:28.343Z,21.40
2019-01-25T03:00:32.134Z,19.70
2019-01-25T03:02:36.038Z,21.05
2019-01-25T03:04:39.767Z,19.85
2019-01-25T03:06:43.427Z,20.95
2019-01-25T03:08:47.896Z,19.45
2019-01-25T03:10:50.840Z,18.03
2019-01-25T03:12:54.511Z,21.60
2019-01-25T03:14:57.415Z,19.25
2019-01-25T03:17:00.283Z,20.15
2019-01-25T03:19:03.299Z,18.67
2019-01-25T03:21:06.259Z,18.73
2019-01-25T03:23:09.148Z,20.30
2019-01-25T03:25:12.739Z,19.75
2019-01-25T03:27:15.726Z,21.48
2019-01-25T03:29:18.636Z,18.50
2019-01-25T03:31:22.808Z,20.80
2019-01-25T03:33:25.795Z,18.00
2019-01-25T03:35:29.395Z,18.43
2019-01-25T03:37:32.391Z,19.53
2019-01-25T03:39:36.147Z,20.15
2019-01-25T03:41:39.069Z,18.92
2019-01-25T03:43:42.299Z,19.50
2019-01-25T03:45:45.184Z,19.50
2019-01-25T03:47:48.194Z,19.58
2019-01-25T03:49:51.198Z,18.80
2019-01-25T03:51:54.126Z,21.48
2019-01-25T03:53:57.046Z,18.85
2019-01-25T03:56:00.459Z,20.80
2019-01-25T03:58:04.115Z,20.52
2019-01-25T04:00:10.991Z,20.48
2019-01-25T04:02:14.115Z,21.52
2019-01-25T04:04:16.989Z,20.60
2019-01-25T04:06:19.871Z,20.98
2019-01-25T04:08:22.911Z,18.37
2019-01-25T04:10:26.658Z,20.25
2019-01-25T04:12:29.543Z,22.27
2019-01-25T04:14:33.238Z,20.67
2019-01-25T04:16:36.230Z,19.43
2019-01-25T04:18:41.336Z,20.03
2019-01-25T04:20:44.747Z,20.70
2019-01-25T04:22:47.634Z,17.90
2019-01-25T04:24:50.655Z,18.77
2019-01-25T04:26:54.383Z,20.05
2019-01-25T04:28:57.264Z,19.80
2019-01-25T04:31:00.300Z,21.23
2019-01-25T04:33:04.102Z,21.67
2019-01-25T04:35:06.967Z,21.15
2019-01-25T04:37:10.676Z,20.05
2019-01-25T04:39:14.351Z,19.58
2019-01-25T04:41:17.235Z,21.37
2019-01-25T04:43:20.226Z,22.20
2019-01-25T04:45:23.332Z,20.65
2019-01-25T04:47:26.194Z,20.35
2019-01-25T04:49:29.320Z,21.15
2019-01-25T04:51:32.363Z,21.85
2019-01-25T04:53:35.871Z,21.33
2019-01-25T04:55:39.561Z,19.33
2019-01-25T04:57:42.575Z,21.30
2019-01-25T04:59:46.864Z,19.74
2019-01-25T05:01:52.088Z,22.10
2019-01-25T05:03:54.059Z,20.33
2019-01-25T05:05:57.856Z,20.45
2019-01-25T05:08:01.514Z,23.73
2019-01-25T05:10:04.427Z,21.58
2019-01-25T05:12:07.335Z,21.05
2019-01-25T05:14:10.304Z,19.95
2019-01-25T05:16:13.415Z,19.92
2019-01-25T05:18:17.316Z,21.58
2019-01-25T05:20:21.000Z,20.92
2019-01-25T05:22:24.676Z,19.87
2019-01-25T05:24:27.566Z,22.15
2019-01-25T05:26:30.443Z,19.92
2019-01-25T05:28:33.439Z,19.67
2019-01-25T05:30:36.326Z,22.20
2019-01-25T05:32:39.974Z,21.15
2019-01-25T05:34:42.995Z,21.62
2019-01-25T05:36:45.994Z,19.45
2019-01-25T05:38:49.653Z,21.02
2019-01-25T05:40:52.660Z,21.30
2019-01-25T05:42:55.548Z,19.95
2019-01-25T05:44:58.499Z,20.30
2019-01-25T05:47:01.414Z,22.73
2019-01-25T05:49:04.801Z,22.17
2019-01-25T05:51:07.681Z,22.33
2019-01-25T05:53:11.981Z,21.85
2019-01-25T05:55:15.731Z,20.35
2019-01-25T05:57:19.815Z,20.17
2019-01-25T05:59:24.077Z,20.70
2019-01-25T06:01:27.114Z,20.57
2019-01-25T06:03:29.978Z,22.20
2019-01-25T06:05:32.969Z,23.12
2019-01-25T06:07:36.642Z,19.90
2019-01-25T06:09:39.555Z,21.95
2019-01-25T06:11:42.522Z,21.85
2019-01-25T06:13:45.406Z,22.33
2019-01-25T06:15:48.398Z,20.10
2019-01-25T06:17:51.375Z,21.97
2019-01-25T06:19:55.252Z,23.35
2019-01-25T06:21:58.127Z,20.95
2019-01-25T06:24:02.282Z,19.55
2019-01-25T06:26:05.927Z,20.55
2019-01-25T06:28:08.847Z,20.52
2019-01-25T06:30:11.853Z,19.60
2019-01-25T06:32:16.002Z,22.37
2019-01-25T06:34:18.883Z,20.30
2019-01-25T06:36:22.314Z,20.30
2019-01-25T06:38:25.719Z,21.10
2019-01-25T06:40:29.406Z,21.00
2019-01-25T06:42:32.323Z,21.35
2019-01-25T06:44:35.278Z,21.50
2019-01-25T06:46:38.253Z,22.20
2019-01-25T06:48:41.344Z,21.40
2019-01-25T06:50:44.257Z,20.92
2019-01-25T06:52:47.219Z,21.65
2019-01-25T06:54:51.030Z,21.45
2019-01-25T06:56:54.677Z,21.62
2019-01-25T06:58:58.014Z,19.20
2019-01-25T07:01:17.454Z,20.17
2019-01-25T07:03:21.231Z,17.90
2019-01-25T07:05:24.802Z,20.42
2019-01-25T07:07:29.047Z,23.02
2019-01-25T07:09:32.562Z,21.08
2019-01-25T07:11:41.877Z,21.10
2019-01-25T07:13:39.873Z,22.33
2019-01-25T07:15:42.762Z,20.70
2019-01-25T07:17:45.718Z,22.85
2019-01-25T07:19:48.625Z,22.13
2019-01-25T07:21:51.599Z,21.30
2019-01-25T07:23:54.578Z,20.73
2019-01-25T07:25:57.498Z,22.95
2019-01-25T07:28:01.162Z,19.12
2019-01-25T07:30:04.058Z,23.52
2019-01-25T07:32:07.951Z,22.00
2019-01-25T07:34:11.411Z,22.23
2019-01-25T07:36:15.435Z,21.60
2019-01-25T07:38:18.767Z,21.58
2019-01-25T07:40:21.628Z,19.62
2019-01-25T07:42:25.852Z,22.67
2019-01-25T07:44:29.533Z,22.20
2019-01-25T07:46:32.411Z,23.30
2019-01-25T07:48:35.598Z,23.77
2019-01-25T07:50:38.282Z,22.33
2019-01-25T07:52:41.942Z,22.10
2019-01-25T07:54:45.135Z,23.67
2019-01-25T07:56:48.488Z,22.90
2019-01-25T07:58:52.132Z,24.67
2019-01-25T08:00:55.063Z,21.42
2019-01-25T08:02:58.959Z,23.65
2019-01-25T08:05:02.610Z,21.98
2019-01-25T08:07:06.012Z,24.98
2019-01-25T08:09:08.918Z,24.87
2019-01-25T08:11:12.593Z,21.75
2019-01-25T08:13:16.017Z,23.80
2019-01-25T08:15:20.729Z,22.15
2019-01-25T08:17:23.611Z,23.20
2019-01-25T08:19:26.598Z,23.23
2019-01-25T08:21:29.689Z,23.67
2019-01-25T08:23:32.586Z,23.98
2019-01-25T08:25:36.242Z,24.77
2019-01-25T08:27:39.189Z,22.23
2019-01-25T08:29:43.533Z,23.70
2019-01-25T08:31:46.605Z,22.50
2019-01-25T08:33:50.145Z,23.80
2019-01-25T08:35:53.154Z,21.92
2019-01-25T08:37:56.822Z,22.67
2019-01-25T08:39:59.930Z,22.67
2019-01-25T08:42:02.946Z,21.53
2019-01-25T08:44:06.593Z,22.43
2019-01-25T08:46:09.483Z,24.00
2019-01-25T08:48:12.419Z,24.80
2019-01-25T08:50:15.514Z,26.62
2019-01-25T08:52:19.665Z,24.65
2019-01-25T08:54:22.548Z,25.17
2019-01-25T08:56:26.283Z,24.58
2019-01-25T08:58:29.333Z,23.20
2019-01-25T09:00:32.991Z,25.75
2019-01-25T09:02:35.855Z,23.33
2019-01-25T09:04:38.911Z,24.02
2019-01-25T09:06:43.164Z,23.30
2019-01-25T09:08:46.411Z,24.15
2019-01-25T09:10:50.075Z,24.55
2019-01-25T09:12:53.061Z,24.10
2019-01-25T09:14:57.577Z,23.15
2019-01-25T09:17:00.675Z,25.30
2019-01-25T09:19:04.363Z,24.00
2019-01-25T09:21:07.250Z,22.80
2019-01-25T09:23:10.941Z,25.67
2019-01-25T09:25:13.930Z,24.83
2019-01-25T09:27:17.249Z,22.43
2019-01-25T09:29:20.302Z,21.83
2019-01-25T09:31:23.282Z,24.08
2019-01-25T09:33:26.271Z,24.80
2019-01-25T09:35:29.357Z,25.33
2019-01-25T09:37:32.327Z,25.12
2019-01-25T09:39:35.215Z,22.95
2019-01-25T09:41:39.513Z,22.62
2019-01-25T09:43:42.166Z,25.45
2019-01-25T09:45:45.117Z,23.62
2019-01-25T09:47:48.787Z,25.88
2019-01-25T09:49:54.218Z,25.48
2019-01-25T09:51:57.910Z,26.58
2019-01-25T09:54:00.919Z,27.05
2019-01-25T09:56:04.640Z,24.10
2019-01-25T09:58:08.311Z,24.55
2019-01-25T10:00:16.726Z,25.70
2019-01-25T10:02:20.387Z,24.25
2019-01-25T10:04:23.406Z,22.53
2019-01-25T10:06:26.322Z,25.47
2019-01-25T10:08:30.010Z,23.80
2019-01-25T10:10:33.174Z,23.10
2019-01-25T10:12:43.076Z,24.95
2019-01-25T10:14:39.018Z,26.23
2019-01-25T10:16:41.945Z,24.70
2019-01-25T10:18:46.034Z,24.55
2019-01-25T10:20:49.690Z,26.37
2019-01-25T10:22:52.643Z,23.75
2019-01-25T10:24:56.287Z,24.53
2019-01-25T10:26:59.204Z,24.25
2019-01-25T10:29:02.871Z,24.63
2019-01-25T10:31:05.891Z,24.33
2019-01-25T10:33:09.548Z,21.90
2019-01-25T10:35:13.104Z,26.23
2019-01-25T10:37:16.773Z,24.67
2019-01-25T10:39:19.785Z,23.12
2019-01-25T10:41:23.450Z,23.90
2019-01-25T10:43:26.451Z,24.30
2019-01-25T10:45:39.895Z,25.30
2019-01-25T10:47:44.375Z,23.23
2019-01-25T10:49:47.473Z,24.87
2019-01-25T10:51:50.355Z,22.80
2019-01-25T10:53:53.302Z,24.33
2019-01-25T10:55:56.619Z,24.30
2019-01-25T10:57:59.559Z,24.30
2019-01-25T11:00:02.534Z,24.85
2019-01-25T11:02:06.112Z,24.03
2019-01-25T11:04:11.653Z,24.77
2019-01-25T11:06:12.918Z,23.27
2019-01-25T11:08:15.932Z,23.98
2019-01-25T11:10:18.968Z,26.00
2019-01-25T11:12:23.467Z,25.55
2019-01-25T11:14:27.338Z,25.77
2019-01-25T11:16:30.245Z,25.15
2019-01-25T11:18:33.143Z,25.33
2019-01-25T11:20:36.922Z,24.87
2019-01-25T11:22:41.089Z,24.17
2019-01-25T11:24:44.791Z,27.05
2019-01-25T11:26:47.953Z,27.77
2019-01-25T11:28:51.592Z,24.15
2019-01-25T11:30:54.504Z,27.70
2019-01-25T11:32:57.582Z,24.63
2019-01-25T11:35:01.385Z,25.08
2019-01-25T11:37:04.250Z,26.10
2019-01-25T11:39:07.162Z,27.20
2019-01-25T11:41:10.988Z,25.95
2019-01-25T11:43:15.362Z,24.27
2019-01-25T11:45:18.286Z,26.70
2019-01-25T11:47:21.271Z,25.73
2019-01-25T11:49:25.258Z,25.33
2019-01-25T11:51:28.936Z,24.63
2019-01-25T11:53:33.331Z,25.40
2019-01-25T11:55:36.234Z,26.15
2019-01-25T11:57:39.150Z,26.05
2019-01-25T11:59:43.018Z,25.30
2019-01-25T12:01:45.907Z,25.30
2019-01-25T12:03:49.720Z,25.52
2019-01-25T12:05:53.956Z,23.65
2019-01-25T12:07:56.839Z,26.35
2019-01-25T12:10:00.339Z,23.83
2019-01-25T12:12:03.861Z,25.43
2019-01-25T12:14:06.748Z,23.60
2019-01-25T12:16:09.655Z,28.13
2019-01-25T12:18:13.374Z,25.47
2019-01-25T12:20:18.704Z,21.25
2019-01-25T12:22:22.380Z,25.00
2019-01-25T12:24:26.440Z,23.90
2019-01-25T12:26:28.179Z,26.55
2019-01-25T12:28:32.259Z,25.80
2019-01-25T12:30:37.666Z,26.30
2019-01-25T12:32:39.180Z,26.48
2019-01-25T12:34:42.834Z,28.85
2019-01-25T12:36:45.721Z,26.87
2019-01-25T12:38:48.602Z,24.30
2019-01-25T12:40:51.590Z,24.37
2019-01-25T12:42:54.491Z,27.37
2019-01-25T12:44:57.506Z,25.30
2019-01-25T12:47:00.819Z,25.92
2019-01-25T12:49:03.704Z,24.30
2019-01-25T12:51:06.599Z,22.98
2019-01-25T12:53:11.025Z,25.48
2019-01-25T12:55:13.882Z,24.50
2019-01-25T12:57:17.495Z,26.12
2019-01-25T12:59:20.402Z,25.50
2019-01-25T13:01:24.766Z,23.80
2019-01-25T13:03:27.652Z,24.87
2019-01-25T13:05:31.289Z,25.52
2019-01-25T13:07:34.955Z,24.92
2019-01-25T13:09:37.841Z,22.77
2019-01-25T13:11:40.785Z,25.20
2019-01-25T13:13:43.773Z,23.73
2019-01-25T13:15:46.727Z,24.95
2019-01-25T13:17:50.314Z,24.87
2019-01-25T13:19:54.686Z,22.83
2019-01-25T13:21:57.570Z,25.12
2019-01-25T13:24:00.597Z,23.05
2019-01-25T13:26:04.260Z,24.55
2019-01-25T13:28:07.134Z,22.77
2019-01-25T13:30:13.723Z,24.35
2019-01-25T13:32:16.607Z,24.42
2019-01-25T13:34:19.517Z,22.35
2019-01-25T13:36:23.175Z,22.10
2019-01-25T13:38:26.155Z,26.05
2019-01-25T13:40:29.754Z,23.83
2019-01-25T13:42:32.855Z,23.77
2019-01-25T13:44:35.731Z,24.07
2019-01-25T13:46:38.639Z,23.40
2019-01-25T13:48:42.426Z,21.65
2019-01-25T13:50:46.131Z,22.58
2019-01-25T13:52:50.468Z,23.87
2019-01-25T13:54:54.127Z,23.73
2019-01-25T13:56:57.127Z,23.02
2019-01-25T13:59:00.791Z,23.35
2019-01-25T14:01:03.700Z,22.27
2019-01-25T14:03:06.583Z,21.40
2019-01-25T14:05:10.296Z,24.87
2019-01-25T14:07:14.388Z,24.87
2019-01-25T14:09:17.334Z,20.05
2019-01-25T14:11:20.234Z,22.87
2019-01-25T14:13:23.248Z,21.15
2019-01-25T14:15:27.138Z,20.83
2019-01-25T14:17:30.135Z,21.50
2019-01-25T14:19:33.098Z,22.95
2019-01-25T14:21:35.997Z,20.35
2019-01-25T14:23:38.886Z,21.20
2019-01-25T14:25:43.075Z,20.77
2019-01-25T14:27:45.958Z,20.73
2019-01-25T14:29:48.838Z,21.30
2019-01-25T14:31:52.535Z,20.60
2019-01-25T14:33:55.411Z,19.90
2019-01-25T14:35:58.412Z,20.80
2019-01-25T14:38:02.303Z,19.40
2019-01-25T14:40:05.187Z,19.03
2019-01-25T14:42:08.270Z,18.33
2019-01-25T14:44:11.234Z,17.55
2019-01-25T14:46:14.151Z,19.83
2019-01-25T14:48:17.791Z,18.33
2019-01-25T14:50:22.570Z,18.67
2019-01-25T14:52:25.463Z,17.25
2019-01-25T14:54:29.515Z,17.50
2019-01-25T14:56:32.862Z,17.62
2019-01-25T14:58:36.542Z,16.83
2019-01-25T15:00:39.439Z,16.08
2019-01-25T15:02:43.107Z,16.57
2019-01-25T15:04:46.021Z,16.52
2019-01-25T15:06:48.991Z,17.65
2019-01-25T15:08:51.896Z,16.08
2019-01-25T15:10:55.575Z,17.05
2019-01-25T15:13:00.039Z,15.65
2019-01-25T15:15:02.878Z,15.38
2019-01-25T15:17:06.675Z,17.70
2019-01-25T15:19:09.563Z,18.00
2019-01-25T15:21:13.462Z,16.45
2019-01-25T15:23:17.122Z,17.60
2019-01-25T15:25:20.003Z,16.02
2019-01-25T15:27:22.922Z,16.35
2019-01-25T15:29:26.618Z,16.27
2019-01-25T15:31:29.915Z,14.77
2019-01-25T15:33:33.594Z,16.60
2019-01-25T15:35:36.475Z,16.30
2019-01-25T15:37:39.575Z,14.60
2019-01-25T15:39:42.854Z,14.60
2019-01-25T15:41:45.752Z,16.70
2019-01-25T15:43:49.503Z,15.77
2019-01-25T15:45:52.387Z,15.55
2019-01-25T15:47:55.267Z,15.90
2019-01-25T15:49:58.198Z,15.10
2019-01-25T15:52:02.807Z,16.27
2019-01-25T15:54:05.694Z,14.93
2019-01-25T15:56:10.043Z,15.15
2019-01-25T15:58:13.707Z,14.77
2019-01-25T16:00:17.499Z,14.40
2019-01-25T16:02:20.399Z,12.37
2019-01-25T16:04:23.466Z,12.27
2019-01-25T16:06:27.958Z,12.30
2019-01-25T16:08:30.862Z,11.45
2019-01-25T16:10:33.867Z,12.05
2019-01-25T16:12:37.511Z,11.50
2019-01-25T16:14:40.631Z,11.15
2019-01-25T16:16:43.610Z,10.70
2019-01-25T16:18:46.506Z,11.10
2019-01-25T16:20:50.175Z,9.77
2019-01-25T16:22:53.095Z,9.60
2019-01-25T16:24:56.752Z,11.40
2019-01-25T16:27:00.234Z,10.10
2019-01-25T16:29:03.395Z,11.83
2019-01-25T16:31:07.034Z,10.20
2019-01-25T16:33:09.928Z,9.73
2019-01-25T16:35:12.886Z,11.48
2019-01-25T16:37:15.806Z,10.17
2019-01-25T16:39:19.510Z,11.05
2019-01-25T16:41:23.826Z,12.30
2019-01-25T16:43:27.557Z,9.93
2019-01-25T16:45:34.775Z,11.18
2019-01-25T16:47:37.683Z,10.63
2019-01-25T16:49:40.561Z,10.07
2019-01-25T16:51:43.439Z,10.00
2019-01-25T16:53:46.431Z,10.18
2019-01-25T16:55:49.330Z,9.48
2019-01-25T16:57:52.981Z,12.20
2019-01-25T16:59:55.886Z,9.63
2019-01-25T17:01:58.767Z,12.02
2019-01-25T17:04:01.654Z,11.32
2019-01-25T17:06:04.631Z,11.07
2019-01-25T17:08:07.515Z,11.82
2019-01-25T17:10:10.926Z,11.82
2019-01-25T17:12:15.387Z,14.50
2019-01-25T17:14:18.308Z,12.80
2019-01-25T17:16:21.957Z,12.85
2019-01-25T17:18:24.988Z,14.20
2019-01-25T17:20:28.108Z,15.07
2019-01-25T17:22:31.774Z,15.90
2019-01-25T17:24:34.764Z,15.43
2019-01-25T17:26:38.415Z,15.02
2019-01-25T17:28:41.856Z,16.02
2019-01-25T17:30:45.539Z,17.30
2019-01-25T17:32:48.423Z,16.52
2019-01-25T17:34:51.294Z,15.68
2019-01-25T17:36:54.295Z,17.25
2019-01-25T17:38:57.174Z,16.52
2019-01-25T17:41:00.058Z,18.33
2019-01-25T17:43:02.974Z,17.87
2019-01-25T17:45:05.864Z,17.23
2019-01-25T17:47:09.621Z,16.47
2019-01-25T17:49:13.520Z,17.80
2019-01-25T17:51:16.522Z,16.52
2019-01-25T17:53:20.178Z,18.27
2019-01-25T17:55:23.295Z,17.23
2019-01-25T17:57:26.275Z,16.65
2019-01-25T17:59:29.266Z,16.45
2019-01-25T18:01:33.365Z,16.65
2019-01-25T18:03:36.350Z,17.10
2019-01-25T18:05:39.231Z,17.63
2019-01-25T18:07:42.147Z,15.00
2019-01-25T18:09:45.845Z,17.90
2019-01-25T18:11:49.527Z,16.80
2019-01-25T18:13:53.315Z,15.88
2019-01-25T18:15:56.230Z,16.17
2019-01-25T18:17:59.930Z,17.42
2019-01-25T18:20:03.698Z,17.83
2019-01-25T18:22:08.103Z,17.75
2019-01-25T18:24:11.508Z,19.67
2019-01-25T18:26:14.523Z,17.17
2019-01-25T18:28:17.472Z,18.23
2019-01-25T18:30:37.284Z,16.95
2019-01-25T18:32:41.055Z,17.83
2019-01-25T18:34:43.965Z,16.92
2019-01-25T18:36:46.955Z,16.52
2019-01-25T18:38:50.728Z,18.27
2019-01-25T18:40:54.391Z,18.33
2019-01-25T18:42:57.274Z,17.70
2019-01-25T18:45:00.278Z,16.55
2019-01-25T18:47:03.158Z,17.55
2019-01-25T18:49:06.250Z,18.37
2019-01-25T18:51:09.171Z,17.20
2019-01-25T18:53:12.054Z,17.15
2019-01-25T18:55:15.670Z,16.47
2019-01-25T18:57:18.591Z,16.33
2019-01-25T18:59:21.607Z,16.42
2019-01-25T19:01:25.635Z,18.00
2019-01-25T19:03:28.555Z,18.92
2019-01-25T19:05:31.446Z,18.83
2019-01-25T19:07:35.434Z,16.65
2019-01-25T19:09:38.606Z,17.02
2019-01-25T19:11:41.438Z,17.50
2019-01-25T19:13:45.083Z,16.95
2019-01-25T19:15:48.328Z,16.75
2019-01-25T19:17:52.083Z,15.57
2019-01-25T19:19:55.059Z,15.97
2019-01-25T19:21:58.807Z,16.70
2019-01-25T19:24:02.459Z,17.70
2019-01-25T19:26:05.372Z,19.50
2019-01-25T19:28:08.454Z,16.20
2019-01-25T19:30:20.457Z,16.80
2019-01-25T19:32:23.194Z,15.73
2019-01-25T19:34:26.098Z,16.87
2019-01-25T19:36:29.022Z,15.48
2019-01-25T19:38:32.679Z,15.55
2019-01-25T19:40:35.591Z,16.58
2019-01-25T19:42:39.258Z,15.02
2019-01-25T19:44:42.139Z,15.70
2019-01-25T19:46:45.122Z,14.30
2019-01-25T19:48:48.008Z,16.33
2019-01-25T19:50:50.903Z,14.60
2019-01-25T19:52:54.660Z,12.57
2019-01-25T19:54:58.531Z,16.00
2019-01-25T19:57:02.527Z,15.33
2019-01-25T19:59:05.728Z,15.30
2019-01-25T20:01:09.381Z,15.20
2019-01-25T20:03:12.262Z,15.10
2019-01-25T20:05:15.162Z,15.20
2019-01-25T20:07:18.072Z,13.53
2019-01-25T20:09:21.021Z,14.02
2019-01-25T20:11:24.775Z,13.93
2019-01-25T20:13:27.733Z,15.38
2019-01-25T20:15:31.367Z,13.82
2019-01-25T20:17:35.047Z,13.80
2019-01-25T20:19:38.118Z,13.50
2019-01-25T20:21:41.862Z,13.67
2019-01-25T20:23:45.379Z,15.40
2019-01-25T20:25:48.266Z,16.90
2019-01-25T20:27:51.183Z,14.50
2019-01-25T20:29:55.347Z,14.30
2019-01-25T20:31:58.347Z,17.33
2019-01-25T20:34:02.395Z,14.70
2019-01-25T20:36:06.870Z,15.93
2019-01-25T20:38:10.526Z,15.37
2019-01-25T20:40:13.657Z,12.77
2019-01-25T20:42:16.848Z,14.60
2019-01-25T20:44:20.346Z,14.80
2019-01-25T20:46:23.831Z,15.73
2019-01-25T20:48:27.167Z,14.97
2019-01-25T20:50:35.118Z,15.87
2019-01-25T20:52:43.704Z,14.40
2019-01-25T20:54:49.763Z,14.83
2019-01-25T20:56:52.714Z,15.47
2019-01-25T20:58:55.875Z,14.90
2019-01-25T21:01:00.002Z,15.60
2019-01-25T21:03:04.973Z,16.95
2019-01-25T21:05:10.369Z,14.65
2019-01-25T21:07:14.273Z,14.35
2019-01-25T21:09:17.987Z,15.30
2019-01-25T21:11:20.911Z,16.83
2019-01-25T21:13:24.041Z,15.15
2019-01-25T21:15:34.787Z,16.50
2019-01-25T21:17:30.587Z,14.30
2019-01-25T21:19:33.557Z,13.98
2019-01-25T21:21:36.467Z,14.00
2019-01-25T21:23:40.203Z,14.90
2019-01-25T21:25:43.113Z,15.63
2019-01-25T21:27:46.069Z,15.05
2019-01-25T21:29:48.964Z,15.50
2019-01-25T21:31:51.950Z,14.80
2019-01-25T21:33:54.931Z,14.20
2019-01-25T21:35:57.850Z,15.25
2019-01-25T21:38:00.954Z,18.17
2019-01-25T21:40:10.096Z,14.93
2019-01-25T21:42:13.007Z,13.23
2019-01-25T21:44:15.986Z,14.73
2019-01-25T21:46:19.915Z,12.80
2019-01-25T21:48:22.827Z,12.85
2019-01-25T21:50:27.389Z,14.60
2019-01-25T21:52:30.327Z,12.85
2019-01-25T21:54:33.177Z,12.80
2019-01-25T21:56:36.091Z,16.00
2019-01-25T21:58:40.642Z,12.67
2019-01-25T22:00:43.531Z,13.40
2019-01-25T22:02:46.771Z,13.55
2019-01-25T22:04:50.440Z,14.10
2019-01-25T22:06:53.360Z,13.60
2019-01-25T22:08:56.434Z,14.07
2019-01-25T22:10:59.326Z,12.80
2019-01-25T22:13:03.048Z,14.40
2019-01-25T22:15:06.003Z,15.53
2019-01-25T22:17:09.710Z,13.43
2019-01-25T22:19:13.407Z,11.65
2019-01-25T22:21:17.209Z,14.30
2019-01-25T22:23:20.347Z,13.62
2019-01-25T22:25:23.257Z,13.53
2019-01-25T22:27:26.260Z,13.13
2019-01-25T22:29:29.242Z,12.97
2019-01-25T22:31:33.068Z,14.67
2019-01-25T22:33:36.743Z,12.55
2019-01-25T22:35:39.626Z,12.25
2019-01-25T22:37:43.330Z,13.35
2019-01-25T22:39:47.001Z,14.50
2019-01-25T22:41:49.913Z,13.15
2019-01-25T22:43:53.581Z,13.90
2019-01-25T22:45:58.643Z,14.23
2019-01-25T22:47:59.391Z,13.75
2019-01-25T22:50:02.296Z,13.23
2019-01-25T22:52:05.318Z,12.65
2019-01-25T22:54:08.269Z,12.63
2019-01-25T22:56:11.283Z,14.27
2019-01-25T22:58:14.183Z,13.73
2019-01-25T23:00:22.838Z,12.20
2019-01-25T23:02:26.644Z,13.43
2019-01-25T23:04:29.667Z,12.05
2019-01-25T23:06:33.655Z,10.35
2019-01-25T23:08:36.549Z,13.43
2019-01-25T23:10:39.601Z,12.50
2019-01-25T23:12:42.476Z,11.80
2019-01-25T23:14:45.507Z,13.43
2019-01-25T23:16:50.169Z,13.80
2019-01-25T23:18:53.480Z,11.90
2019-01-25T23:20:56.619Z,13.55
2019-01-25T23:23:00.698Z,12.68
2019-01-25T23:25:03.591Z,12.15
2019-01-25T23:27:06.489Z,12.47
2019-01-25T23:29:10.174Z,12.23
2019-01-25T23:31:13.070Z,11.07
2019-01-25T23:33:16.728Z,13.10
2019-01-25T23:35:19.702Z,14.50
2019-01-25T23:37:22.725Z,12.43
2019-01-25T23:39:25.702Z,11.95
2019-01-25T23:41:28.706Z,11.97
2019-01-25T23:43:32.362Z,13.00
2019-01-25T23:45:36.086Z,11.20
2019-01-25T23:47:39.162Z,11.30
2019-01-25T23:49:42.055Z,12.05
2019-01-25T23:51:44.935Z,11.32
2019-01-25T23:53:48.096Z,12.80
2019-01-25T23:55:51.014Z,10.93
2019-01-25T23:57:54.670Z,12.37
2019-01-25T23:59:57.586Z,11.43
